createdAt,value
2018-05-23T00:00:14.076Z,3.77
2018-05-23T00:01:48.795Z,3.40
2018-05-23T00:03:23.454Z,3.00
2018-05-23T00:04:57.326Z,3.00
2018-05-23T00:06:32.291Z,3.27
2018-05-23T00:08:06.182Z,3.43
2018-05-23T00:09:40.070Z,3.40
2018-05-23T00:11:14.780Z,3.47
2018-05-23T00:12:50.591Z,3.03
2018-05-23T00:14:24.470Z,3.23
2018-05-23T00:15:58.948Z,2.90
2018-05-23T00:17:32.943Z,3.60
2018-05-23T00:19:07.362Z,3.23
2018-05-23T00:20:41.797Z,3.63
2018-05-23T00:22:16.552Z,3.67
2018-05-23T00:23:50.412Z,3.53
2018-05-23T00:25:24.312Z,3.17
2018-05-23T00:26:59.013Z,2.90
2018-05-23T00:28:32.902Z,2.80
2018-05-23T00:30:08.032Z,4.00
2018-05-23T00:50:30.694Z,3.07
2018-05-23T00:52:12.296Z,3.60
2018-05-23T00:53:46.205Z,3.53
2018-05-23T00:55:31.777Z,3.47
2018-05-23T00:57:06.441Z,3.10
2018-05-23T00:58:41.069Z,3.23
2018-05-23T01:00:14.937Z,3.53
2018-05-23T01:01:49.715Z,3.03
2018-05-23T01:22:11.742Z,3.47
2018-05-23T01:23:46.366Z,3.37
2018-05-23T01:25:20.251Z,3.67
2018-05-23T01:26:54.947Z,3.50
2018-05-23T01:28:28.815Z,3.40
2018-05-23T01:30:03.206Z,3.50
2018-05-23T01:31:37.071Z,3.13
2018-05-23T01:33:11.929Z,3.03
2018-05-23T01:34:45.809Z,3.27
2018-05-23T01:36:20.092Z,3.73
2018-05-23T01:37:54.746Z,3.30
2018-05-23T01:39:29.416Z,3.40
2018-05-23T01:41:03.727Z,3.20
2018-05-23T01:42:37.588Z,3.03
2018-05-23T01:44:12.952Z,2.87
2018-05-23T01:45:47.617Z,3.07
2018-05-23T01:47:21.494Z,3.40
2018-05-23T01:49:07.181Z,3.30
2018-05-23T01:50:41.050Z,3.60
2018-05-23T01:52:14.958Z,3.50
2018-05-23T01:53:49.474Z,3.50
2018-05-23T01:55:23.736Z,3.50
2018-05-23T01:56:58.994Z,3.23
2018-05-23T01:58:32.921Z,3.87
2018-05-23T02:00:07.716Z,3.90
2018-05-23T02:01:42.356Z,3.20
2018-05-23T02:03:16.224Z,4.17
2018-05-23T02:04:50.140Z,4.10
2018-05-23T02:06:24.012Z,3.43
2018-05-23T02:07:57.898Z,3.43
2018-05-23T02:09:31.806Z,3.37
2018-05-23T02:11:05.700Z,3.63
2018-05-23T02:12:40.387Z,3.53
2018-05-23T02:14:15.111Z,3.60
2018-05-23T02:15:49.704Z,3.53
2018-05-23T02:17:23.607Z,3.30
2018-05-23T02:18:57.868Z,3.80
2018-05-23T02:20:31.781Z,3.70
2018-05-23T02:22:05.905Z,3.73
2018-05-23T02:23:40.532Z,3.63
2018-05-23T02:25:14.747Z,3.37
2018-05-23T02:26:49.233Z,3.40
2018-05-23T02:28:23.114Z,3.40
2018-05-23T02:29:57.029Z,3.70
2018-05-23T02:31:30.896Z,3.53
2018-05-23T02:33:04.829Z,3.70
2018-05-23T02:34:38.719Z,3.97
2018-05-23T02:36:13.063Z,3.60
2018-05-23T02:37:46.950Z,3.50
2018-05-23T02:39:21.538Z,3.50
2018-05-23T02:40:55.399Z,3.77
2018-05-23T02:42:29.297Z,3.63
2018-05-23T02:44:03.582Z,3.60
2018-05-23T02:45:37.515Z,3.40
2018-05-23T02:47:12.058Z,3.60
2018-05-23T02:48:45.828Z,3.60
2018-05-23T02:50:19.710Z,3.53
2018-05-23T02:51:53.587Z,3.80
2018-05-23T02:53:27.503Z,4.13
2018-05-23T02:55:01.384Z,3.50
2018-05-23T02:56:35.255Z,3.80
2018-05-23T02:58:09.139Z,3.50
2018-05-23T02:59:43.039Z,3.80
2018-05-23T03:01:17.674Z,4.00
2018-05-23T03:02:51.856Z,4.37
2018-05-23T03:04:25.842Z,3.83
2018-05-23T03:05:59.846Z,4.10
2018-05-23T03:07:34.388Z,3.93
2018-05-23T03:09:08.254Z,4.10
2018-05-23T03:10:42.165Z,3.67
2018-05-23T03:12:16.052Z,3.90
2018-05-23T03:13:50.668Z,3.57
2018-05-23T03:15:24.584Z,3.73
2018-05-23T03:16:59.111Z,3.77
2018-05-23T03:18:33.116Z,3.80
2018-05-23T03:20:08.674Z,3.90
2018-05-23T03:21:43.289Z,4.20
2018-05-23T03:23:18.954Z,4.20
2018-05-23T03:24:52.820Z,4.77
2018-05-23T03:26:26.701Z,4.20
2018-05-23T03:28:01.127Z,4.00
2018-05-23T03:29:35.444Z,4.07
2018-05-23T03:31:09.317Z,3.97
2018-05-23T03:32:43.611Z,3.57
2018-05-23T03:34:20.649Z,4.10
2018-05-23T03:35:55.132Z,4.47
2018-05-23T03:37:29.548Z,4.20
2018-05-23T03:57:52.648Z,4.70
2018-05-23T03:59:38.204Z,4.20
2018-05-23T04:01:24.063Z,4.47
2018-05-23T04:21:45.022Z,4.60
2018-05-23T04:23:19.415Z,4.20
2018-05-23T04:24:54.347Z,5.03
2018-05-23T04:26:28.225Z,5.03
2018-05-23T04:28:02.103Z,4.40
2018-05-23T04:29:36.003Z,4.93
2018-05-23T04:31:09.929Z,5.10
2018-05-23T04:32:43.855Z,4.67
2018-05-23T04:34:18.196Z,4.23
2018-05-23T04:35:52.343Z,4.50
2018-05-23T04:37:26.273Z,4.43
2018-05-23T04:57:48.501Z,3.83
2018-05-23T04:59:23.150Z,4.13
2018-05-23T05:00:58.233Z,4.07
2018-05-23T05:02:32.124Z,4.00
2018-05-23T05:04:06.702Z,4.60
2018-05-23T05:05:40.573Z,4.40
2018-05-23T05:07:15.855Z,3.80
2018-05-23T05:08:52.276Z,4.40
2018-05-23T05:10:27.431Z,4.03
2018-05-23T05:12:01.301Z,4.80
2018-05-23T05:13:35.216Z,5.10
2018-05-23T05:15:09.307Z,4.63
2018-05-23T05:16:44.949Z,4.90
2018-05-23T05:18:19.536Z,4.40
2018-05-23T05:19:53.829Z,4.30
2018-05-23T05:21:28.639Z,4.73
2018-05-23T05:23:03.846Z,4.60
2018-05-23T05:24:37.894Z,4.80
2018-05-23T05:26:12.584Z,4.50
2018-05-23T05:27:46.511Z,4.77
2018-05-23T05:48:09.584Z,5.20
2018-05-23T05:49:43.506Z,4.37
2018-05-23T05:51:19.268Z,4.53
2018-05-23T05:52:53.397Z,5.40
2018-05-23T05:54:27.944Z,5.23
2018-05-23T05:56:01.849Z,5.03
2018-05-23T05:57:35.744Z,5.40
2018-05-23T05:59:10.562Z,5.30
2018-05-23T06:00:44.446Z,5.60
2018-05-23T06:02:19.471Z,5.90
2018-05-23T06:03:53.379Z,5.37
2018-05-23T06:05:28.055Z,5.50
2018-05-23T06:07:02.767Z,5.90
2018-05-23T06:08:36.646Z,5.07
2018-05-23T06:10:11.168Z,5.70
2018-05-23T06:11:46.301Z,5.13
2018-05-23T06:13:20.209Z,5.40
2018-05-23T06:14:54.104Z,5.70
2018-05-23T06:16:27.975Z,5.37
2018-05-23T06:18:02.727Z,5.43
2018-05-23T06:19:36.592Z,5.07
2018-05-23T06:21:11.495Z,5.60
2018-05-23T06:41:34.001Z,6.43
2018-05-23T07:01:56.447Z,5.80
2018-05-23T07:03:30.369Z,5.13
2018-05-23T07:05:05.034Z,5.07
2018-05-23T07:06:38.912Z,5.10
2018-05-23T07:08:12.830Z,5.70
2018-05-23T07:09:46.713Z,5.80
2018-05-23T07:11:20.590Z,5.40
2018-05-23T07:12:55.013Z,5.00
2018-05-23T07:14:28.932Z,5.70
2018-05-23T07:16:03.345Z,5.53
2018-05-23T07:17:37.250Z,5.57
2018-05-23T07:19:12.536Z,5.60
2018-05-23T07:20:46.483Z,5.80
2018-05-23T07:22:20.355Z,5.80
2018-05-23T07:23:54.250Z,5.73
2018-05-23T07:25:28.153Z,5.10
2018-05-23T07:27:02.066Z,5.57
2018-05-23T07:28:36.011Z,5.33
2018-05-23T07:30:10.691Z,4.80
2018-05-23T07:31:45.192Z,5.10
2018-05-23T07:33:19.905Z,5.17
2018-05-23T07:34:54.244Z,4.63
2018-05-23T07:36:28.891Z,5.57
2018-05-23T07:38:03.319Z,5.77
2018-05-23T07:39:37.196Z,5.07
2018-05-23T07:41:11.078Z,5.93
2018-05-23T07:42:45.360Z,5.43
2018-05-23T07:44:19.695Z,5.27
2018-05-23T07:45:54.442Z,5.40
2018-05-23T07:47:28.330Z,4.87
2018-05-23T07:49:03.383Z,4.83
2018-05-23T07:50:37.292Z,5.10
2018-05-23T07:52:12.398Z,4.97
2018-05-23T07:53:46.339Z,4.33
2018-05-23T07:55:20.254Z,4.60
2018-05-23T07:56:54.179Z,6.00
2018-05-23T07:58:28.088Z,5.43
2018-05-23T08:00:02.790Z,5.00
2018-05-23T08:01:37.494Z,5.60
2018-05-23T08:03:11.880Z,5.27
2018-05-23T08:04:45.775Z,5.67
2018-05-23T08:06:20.902Z,5.30
2018-05-23T08:07:54.772Z,4.60
2018-05-23T08:09:28.663Z,5.00
2018-05-23T08:11:02.562Z,5.10
2018-05-23T08:12:36.461Z,5.50
2018-05-23T08:14:10.349Z,5.10
2018-05-23T08:15:44.265Z,5.27
2018-05-23T08:17:19.564Z,4.97
2018-05-23T08:18:53.504Z,5.17
2018-05-23T08:20:27.723Z,5.60
2018-05-23T08:22:02.442Z,4.80
2018-05-23T08:23:36.974Z,4.73
2018-05-23T08:25:10.865Z,5.23
2018-05-23T08:26:45.210Z,4.80
2018-05-23T08:28:20.580Z,5.60
2018-05-23T08:29:55.073Z,5.10
2018-05-23T08:31:28.951Z,5.83
2018-05-23T08:33:03.867Z,5.70
2018-05-23T08:34:37.749Z,5.30
2018-05-23T08:36:11.629Z,6.13
2018-05-23T08:37:51.173Z,5.37
2018-05-23T08:39:25.073Z,4.93
2018-05-23T08:41:00.183Z,5.77
2018-05-23T08:42:34.717Z,5.23
2018-05-23T08:44:08.615Z,5.30
2018-05-23T08:45:43.746Z,5.37
2018-05-23T08:47:18.248Z,4.80
2018-05-23T08:48:52.153Z,5.00
2018-05-23T08:50:26.030Z,5.57
2018-05-23T08:52:00.690Z,5.67
2018-05-23T08:53:36.136Z,5.00
2018-05-23T08:55:10.000Z,5.20
2018-05-23T08:56:44.548Z,5.27
2018-05-23T08:58:19.676Z,5.60
2018-05-23T08:59:53.584Z,5.40
2018-05-23T09:01:28.213Z,5.67
2018-05-23T09:03:02.084Z,5.70
2018-05-23T09:04:36.239Z,5.90
2018-05-23T09:06:10.868Z,4.93
2018-05-23T09:07:44.859Z,5.00
2018-05-23T09:09:19.459Z,5.40
2018-05-23T09:10:54.230Z,4.90
2018-05-23T09:12:28.222Z,5.57
2018-05-23T09:14:02.656Z,5.87
2018-05-23T09:15:37.351Z,5.10
2018-05-23T09:17:12.559Z,6.17
2018-05-23T09:18:47.081Z,5.90
2018-05-23T09:20:21.513Z,5.40
2018-05-23T09:21:55.388Z,5.70
2018-05-23T09:23:29.262Z,5.73
2018-05-23T09:25:03.199Z,6.20
2018-05-23T09:26:37.084Z,6.27
2018-05-23T09:28:10.983Z,5.40
2018-05-23T09:29:44.895Z,5.13
2018-05-23T09:31:20.315Z,5.67
2018-05-23T09:51:43.623Z,5.50
2018-05-23T09:53:18.471Z,5.80
2018-05-23T09:54:52.358Z,6.47
2018-05-23T09:56:26.400Z,6.40
2018-05-23T09:58:00.405Z,6.30
2018-05-23T09:59:35.167Z,5.43
2018-05-23T10:01:09.099Z,5.67
2018-05-23T10:02:43.568Z,5.33
2018-05-23T10:04:19.176Z,5.57
2018-05-23T10:05:53.134Z,5.47
2018-05-23T10:07:27.052Z,6.60
2018-05-23T10:09:01.783Z,5.50
2018-05-23T10:10:35.934Z,6.17
2018-05-23T10:30:57.987Z,6.00
2018-05-23T10:32:31.897Z,6.10
2018-05-23T10:34:05.880Z,5.90
2018-05-23T10:35:39.845Z,5.60
2018-05-23T10:37:13.758Z,5.03
2018-05-23T10:38:48.970Z,5.00
2018-05-23T10:40:23.919Z,5.10
2018-05-23T10:41:58.674Z,6.27
2018-05-23T10:43:34.907Z,5.30
2018-05-23T10:45:09.543Z,5.20
2018-05-23T10:46:43.488Z,6.23
2018-05-23T10:48:18.139Z,5.97
2018-05-23T10:49:52.099Z,5.20
2018-05-23T10:51:26.831Z,6.17
2018-05-23T10:53:00.936Z,6.27
2018-05-23T10:54:35.462Z,5.47
2018-05-23T10:56:09.384Z,5.90
2018-05-23T10:57:45.061Z,4.97
2018-05-23T10:59:19.725Z,4.80
2018-05-23T11:00:54.683Z,4.70
2018-05-23T11:02:29.137Z,5.10
2018-05-23T11:04:03.020Z,5.70
2018-05-23T11:05:37.518Z,5.00
2018-05-23T11:07:11.794Z,4.97
2018-05-23T11:08:46.066Z,4.97
2018-05-23T11:10:21.621Z,4.50
2018-05-23T11:11:55.506Z,5.10
2018-05-23T11:13:31.643Z,5.50
2018-05-23T11:15:05.610Z,5.17
2018-05-23T11:16:40.036Z,4.90
2018-05-23T11:18:14.213Z,4.90
2018-05-23T11:19:48.093Z,4.90
2018-05-23T11:21:22.252Z,4.63
2018-05-23T11:22:57.166Z,4.80
2018-05-23T11:24:31.040Z,4.23
2018-05-23T11:26:04.923Z,4.67
2018-05-23T11:27:38.844Z,5.20
2018-05-23T11:29:12.772Z,4.50
2018-05-23T11:30:47.940Z,4.17
2018-05-23T11:32:21.849Z,4.30
2018-05-23T11:33:56.076Z,4.30
2018-05-23T11:35:30.679Z,4.20
2018-05-23T11:37:04.597Z,4.83
2018-05-23T11:38:38.522Z,4.70
2018-05-23T11:40:12.415Z,4.37
2018-05-23T11:41:47.105Z,4.70
2018-05-23T11:43:20.982Z,4.70
2018-05-23T11:44:55.479Z,4.47
2018-05-23T11:46:30.193Z,4.43
2018-05-23T11:48:04.037Z,4.63
2018-05-23T11:49:38.655Z,4.50
2018-05-23T11:51:12.567Z,4.83
2018-05-23T11:52:47.024Z,4.67
2018-05-23T11:54:20.977Z,4.57
2018-05-23T11:55:55.497Z,3.93
2018-05-23T11:57:29.898Z,4.57
2018-05-23T11:59:04.574Z,4.40
2018-05-23T12:00:38.452Z,3.80
2018-05-23T12:02:12.643Z,4.67
2018-05-23T12:03:47.069Z,5.20
2018-05-23T12:05:21.010Z,4.47
2018-05-23T12:06:54.922Z,5.07
2018-05-23T12:08:30.228Z,5.90
2018-05-23T12:10:04.591Z,5.07
2018-05-23T12:11:39.123Z,4.57
2018-05-23T12:13:12.978Z,5.17
2018-05-23T12:14:47.473Z,4.83
2018-05-23T12:16:21.401Z,4.97
2018-05-23T12:17:56.047Z,4.77
2018-05-23T12:19:30.780Z,4.50
2018-05-23T12:21:04.624Z,5.00
2018-05-23T12:22:39.300Z,5.23
2018-05-23T12:24:13.207Z,5.30
2018-05-23T12:25:47.144Z,4.80
2018-05-23T12:27:21.001Z,4.77
2018-05-23T12:28:54.939Z,5.10
2018-05-23T12:30:29.043Z,5.07
2018-05-23T12:32:03.733Z,5.23
2018-05-23T12:33:38.434Z,4.97
2018-05-23T12:35:12.348Z,5.60
2018-05-23T12:36:46.228Z,5.07
2018-05-23T12:38:20.114Z,4.80
2018-05-23T12:39:54.036Z,5.70
2018-05-23T12:41:27.922Z,5.40
2018-05-23T12:43:01.835Z,5.70
2018-05-23T12:44:35.757Z,5.37
2018-05-23T12:46:10.002Z,5.40
2018-05-23T12:47:44.769Z,4.63
2018-05-23T13:08:07.920Z,4.10
2018-05-23T13:09:44.505Z,4.50
2018-05-23T13:11:20.046Z,4.57
2018-05-23T13:12:58.449Z,4.40
2018-05-23T13:14:36.408Z,4.70
2018-05-23T13:16:15.872Z,4.20
2018-05-23T13:17:50.681Z,4.90
2018-05-23T13:19:27.161Z,4.40
2018-05-23T13:21:12.071Z,4.90
2018-05-23T13:22:52.637Z,4.67
2018-05-23T13:24:32.604Z,5.10
2018-05-23T13:26:14.449Z,5.03
2018-05-23T13:27:54.483Z,4.80
2018-05-23T13:29:35.649Z,4.43
2018-05-23T13:31:15.027Z,4.80
2018-05-23T13:32:56.461Z,4.80
2018-05-23T13:34:38.555Z,4.90
2018-05-23T13:36:20.245Z,4.83
2018-05-23T13:38:00.814Z,4.80
2018-05-23T13:39:37.965Z,5.23
2018-05-23T13:41:12.790Z,4.80
2018-05-23T13:42:49.645Z,4.63
2018-05-23T13:44:23.716Z,4.20
2018-05-23T13:45:58.471Z,3.53
2018-05-23T13:47:34.533Z,3.90
2018-05-23T13:49:08.653Z,3.67
2018-05-23T13:50:43.287Z,3.50
2018-05-23T13:52:17.211Z,3.40
2018-05-23T13:53:51.688Z,3.00
2018-05-23T13:55:25.552Z,3.60
2018-05-23T13:57:01.416Z,3.37
2018-05-23T13:58:36.630Z,3.57
2018-05-23T14:00:13.144Z,3.30
2018-05-23T14:01:47.236Z,4.20
2018-05-23T14:03:21.724Z,3.97
2018-05-23T14:05:01.363Z,3.80
2018-05-23T14:06:40.908Z,4.00
2018-05-23T14:08:16.848Z,3.90
2018-05-23T14:09:53.294Z,3.43
2018-05-23T14:30:20.608Z,3.57
2018-05-23T14:31:55.295Z,4.07
2018-05-23T14:33:36.790Z,3.93
2018-05-23T14:35:16.778Z,4.20
2018-05-23T14:54:14.438Z,4.90
2018-05-23T14:55:48.729Z,4.60
2018-05-23T14:57:22.688Z,4.30
2018-05-23T14:58:57.181Z,5.20
2018-05-23T15:00:31.121Z,4.87
2018-05-23T15:02:05.481Z,4.60
2018-05-23T15:22:29.155Z,4.40
2018-05-23T15:42:52.055Z,4.27
2018-05-23T15:44:26.748Z,8.70
2018-05-23T15:46:00.653Z,5.30
2018-05-23T15:47:36.046Z,4.17
2018-05-23T15:49:10.672Z,4.43
2018-05-23T15:50:44.547Z,4.30
2018-05-23T15:52:19.245Z,4.30
2018-05-23T15:53:53.172Z,4.33
2018-05-23T15:55:27.051Z,4.17
2018-05-23T15:57:01.031Z,4.10
2018-05-23T15:58:35.927Z,4.33
2018-05-23T16:00:09.861Z,3.40
2018-05-23T16:01:43.745Z,3.80
2018-05-23T16:03:18.670Z,3.80
2018-05-23T16:04:53.819Z,4.63
2018-05-23T16:06:27.773Z,4.30
2018-05-23T16:08:01.769Z,4.40
2018-05-23T16:09:35.701Z,4.00
2018-05-23T16:11:09.566Z,3.90
2018-05-23T16:12:43.457Z,4.17
2018-05-23T16:14:17.381Z,4.13
2018-05-23T16:15:51.288Z,3.90
2018-05-23T16:17:25.178Z,4.23
2018-05-23T16:19:00.455Z,4.23
2018-05-23T16:39:22.318Z,4.50
2018-05-23T16:59:46.201Z,4.83
2018-05-23T17:01:20.517Z,4.70
2018-05-23T17:02:54.789Z,4.90
2018-05-23T17:04:28.935Z,4.70
2018-05-23T17:24:51.702Z,5.80
2018-05-23T17:26:25.643Z,4.90
2018-05-23T17:27:59.547Z,4.40
2018-05-23T17:29:33.420Z,4.90
2018-05-23T17:31:07.875Z,5.00
2018-05-23T17:32:44.899Z,5.10
2018-05-23T17:34:21.488Z,5.27
2018-05-23T17:35:57.255Z,5.17
2018-05-23T17:37:32.147Z,5.30
2018-05-23T17:39:06.075Z,5.20
2018-05-23T17:40:39.973Z,5.03
2018-05-23T17:42:13.922Z,5.30
2018-05-23T17:43:47.793Z,5.20
2018-05-23T17:45:22.963Z,6.03
2018-05-23T17:47:06.666Z,5.10
2018-05-23T17:48:41.297Z,5.37
2018-05-23T17:50:15.733Z,5.50
2018-05-23T17:51:49.668Z,4.80
2018-05-23T17:53:24.207Z,6.20
2018-05-23T17:55:02.252Z,5.50
2018-05-23T17:56:36.152Z,5.67
2018-05-23T17:58:10.794Z,5.43
2018-05-23T17:59:45.168Z,5.33
2018-05-23T18:01:20.301Z,5.60
2018-05-23T18:21:44.179Z,5.40
2018-05-23T18:42:06.243Z,5.87
2018-05-23T18:43:40.539Z,5.60
2018-05-23T18:45:15.512Z,5.63
2018-05-23T18:46:52.113Z,6.00
2018-05-23T18:48:26.731Z,5.60
2018-05-23T18:50:00.966Z,5.47
2018-05-23T19:10:29.279Z,6.60
2018-05-23T19:12:03.300Z,6.13
2018-05-23T19:32:28.937Z,6.63
2018-05-23T19:34:02.853Z,6.63
2018-05-23T19:35:39.041Z,6.67
2018-05-23T19:37:14.693Z,7.10
2018-05-23T19:38:49.481Z,6.43
2018-05-23T19:40:24.739Z,6.20
2018-05-23T19:41:59.831Z,5.97
2018-05-23T19:43:34.163Z,6.73
2018-05-23T19:45:11.320Z,6.60
2018-05-23T19:46:46.529Z,7.30
2018-05-23T19:48:23.432Z,7.37
2018-05-23T19:49:58.265Z,6.10
2018-05-23T19:51:33.697Z,7.40
2018-05-23T19:53:08.345Z,7.10
2018-05-23T19:54:43.110Z,7.60
2018-05-23T19:56:17.840Z,6.87
2018-05-23T19:57:51.937Z,6.43
2018-05-23T19:59:25.998Z,6.53
2018-05-23T20:00:59.957Z,6.47
2018-05-23T20:02:33.874Z,6.50
2018-05-23T20:04:07.961Z,6.43
2018-05-23T20:05:42.286Z,7.33
2018-05-23T20:26:04.736Z,7.20
2018-05-23T20:27:39.605Z,6.47
2018-05-23T20:29:14.504Z,6.37
2018-05-23T20:30:49.451Z,6.73
2018-05-23T20:32:23.337Z,7.07
2018-05-23T20:33:57.728Z,6.80
2018-05-23T20:35:31.687Z,7.00
2018-05-23T20:37:06.890Z,7.70
2018-05-23T20:38:40.928Z,7.33
2018-05-23T20:40:16.227Z,6.97
2018-05-23T20:41:51.531Z,7.13
2018-05-23T20:43:26.263Z,7.43
2018-05-23T20:45:00.187Z,6.90
2018-05-23T20:46:34.096Z,7.10
2018-05-23T20:48:08.815Z,6.93
2018-05-23T20:49:42.738Z,6.67
2018-05-23T20:51:17.121Z,6.70
2018-05-23T20:52:52.003Z,6.47
2018-05-23T20:54:25.909Z,6.70
2018-05-23T20:55:59.882Z,6.00
2018-05-23T20:57:33.862Z,5.53
2018-05-23T20:59:08.017Z,6.43
2018-05-23T21:00:41.964Z,6.43
2018-05-23T21:02:15.871Z,6.53
2018-05-23T21:03:49.812Z,6.83
2018-05-23T21:05:24.645Z,6.80
2018-05-23T21:06:58.499Z,6.70
2018-05-23T21:08:32.453Z,6.50
2018-05-23T21:10:07.127Z,5.80
2018-05-23T21:11:41.652Z,6.20
2018-05-23T21:13:15.552Z,6.50
2018-05-23T21:14:49.966Z,6.63
2018-05-23T21:16:23.870Z,6.40
2018-05-23T21:17:58.548Z,7.00
2018-05-23T21:19:32.572Z,6.83
2018-05-23T21:21:06.371Z,6.73
2018-05-23T21:22:40.242Z,6.30
2018-05-23T21:43:03.231Z,4.93
2018-05-23T21:44:37.139Z,5.20
2018-05-23T21:46:11.016Z,5.10
2018-05-23T21:47:45.551Z,4.80
2018-05-23T21:49:20.285Z,5.00
2018-05-23T21:50:54.165Z,4.90
2018-05-23T21:52:28.185Z,4.50
2018-05-23T21:54:02.107Z,5.27
2018-05-23T21:55:36.795Z,4.50
2018-05-23T21:57:10.687Z,4.10
2018-05-23T21:58:45.865Z,4.20
2018-05-23T22:00:20.535Z,5.13
2018-05-23T22:01:54.719Z,5.20
2018-05-23T22:03:28.584Z,5.03
2018-05-23T22:05:02.495Z,4.70
2018-05-23T22:06:36.402Z,4.30
2018-05-23T22:08:10.278Z,4.30
2018-05-23T22:09:44.326Z,4.50
2018-05-23T22:11:18.750Z,4.80
2018-05-23T22:12:53.682Z,4.10
2018-05-23T22:14:27.557Z,4.20
2018-05-23T22:16:01.469Z,4.53
2018-05-23T22:17:35.338Z,4.47
2018-05-23T22:19:09.242Z,4.40
2018-05-23T22:20:43.927Z,4.30
2018-05-23T22:22:18.090Z,4.63
2018-05-23T22:23:52.651Z,3.90
2018-05-23T22:25:26.524Z,4.27
2018-05-23T22:27:01.739Z,4.83
2018-05-23T22:28:35.609Z,4.10
2018-05-23T22:30:09.578Z,3.90
2018-05-23T22:31:44.245Z,4.00
2018-05-23T22:33:19.393Z,3.60
2018-05-23T22:34:54.234Z,4.40
2018-05-23T22:36:28.130Z,4.07
2018-05-23T22:38:02.600Z,3.63
2018-05-23T22:39:36.471Z,3.80
2018-05-23T22:41:10.338Z,4.10
2018-05-23T22:42:44.264Z,4.20
2018-05-23T22:44:18.709Z,3.83
2018-05-23T22:45:53.079Z,4.17
2018-05-23T22:47:26.995Z,3.87
2018-05-23T22:49:00.884Z,4.30
2018-05-23T22:50:35.388Z,3.80
2018-05-23T22:52:09.254Z,3.90
2018-05-23T22:53:43.157Z,3.97
2018-05-23T22:55:17.729Z,4.10
2018-05-23T22:56:51.932Z,4.50
2018-05-23T22:58:26.524Z,3.70
2018-05-23T23:00:00.396Z,4.00
2018-05-23T23:01:34.261Z,3.80
2018-05-23T23:03:08.945Z,3.60
2018-05-23T23:04:43.341Z,3.83
2018-05-23T23:06:17.230Z,3.37
2018-05-23T23:07:52.111Z,4.07
2018-05-23T23:09:26.659Z,3.60
2018-05-23T23:11:00.518Z,3.73
2018-05-23T23:12:34.846Z,4.10
2018-05-23T23:14:08.761Z,3.87
2018-05-23T23:15:42.901Z,3.57
2018-05-23T23:17:16.792Z,3.60
2018-05-23T23:18:51.667Z,3.70
2018-05-23T23:20:25.537Z,3.20
2018-05-23T23:21:59.424Z,3.43
2018-05-23T23:23:33.294Z,3.70
2018-05-23T23:25:07.977Z,3.63
2018-05-23T23:26:42.666Z,3.90
2018-05-23T23:28:16.541Z,3.20
2018-05-23T23:29:51.069Z,3.70
2018-05-23T23:31:24.970Z,3.40
2018-05-23T23:32:59.464Z,4.03
2018-05-23T23:34:33.338Z,3.90
2018-05-23T23:36:08.052Z,3.30
2018-05-23T23:37:42.759Z,3.40
2018-05-23T23:39:16.627Z,3.70
2018-05-23T23:40:51.099Z,3.27
2018-05-23T23:42:25.007Z,3.27
2018-05-23T23:43:59.522Z,3.27
2018-05-23T23:45:33.382Z,3.50
2018-05-23T23:47:07.912Z,3.43
2018-05-23T23:48:42.530Z,3.33
2018-05-23T23:50:16.448Z,3.50
2018-05-23T23:51:51.733Z,3.10
2018-05-23T23:53:25.685Z,3.30
2018-05-23T23:54:59.927Z,3.23
2018-05-23T23:56:33.817Z,3.17
2018-05-23T23:58:08.169Z,3.33
2018-05-23T23:59:42.792Z,3.43
